createdAt,value
2023-03-12T00:00:12.548Z, 38.02
2023-03-12T00:01:12.549Z, 37.95
2023-03-12T00:02:12.562Z, 37.97
2023-03-12T00:03:12.619Z, 37.96
2023-03-12T00:04:12.575Z, 37.94
2023-03-12T00:05:12.651Z, 37.87
2023-03-12T00:06:12.667Z, 37.85
2023-03-12T00:07:12.640Z, 37.89
2023-03-12T00:08:12.703Z, 37.88
2023-03-12T00:09:12.701Z, 37.85
2023-03-12T00:10:12.678Z, 37.79
2023-03-12T00:11:12.674Z, 37.81
2023-03-12T00:12:12.693Z, 37.84
2023-03-12T00:13:12.709Z, 37.82
2023-03-12T00:14:12.742Z, 37.75
2023-03-12T00:15:12.725Z, 37.74
2023-03-12T00:16:12.782Z, 37.75
2023-03-12T00:17:12.804Z, 37.76
2023-03-12T00:18:12.819Z, 37.73
2023-03-12T00:19:12.826Z, 37.67
2023-03-12T00:20:12.807Z, 37.67
2023-03-12T00:21:12.836Z, 37.63
2023-03-12T00:22:12.835Z, 37.61
2023-03-12T00:23:12.865Z, 37.60
2023-03-12T00:24:12.834Z, 37.56
2023-03-12T00:25:12.836Z, 37.57
2023-03-12T00:26:12.843Z, 37.56
2023-03-12T00:27:12.832Z, 37.54
2023-03-12T00:28:12.861Z, 37.52
2023-03-12T00:29:12.853Z, 37.47
2023-03-12T00:30:12.854Z, 37.45
2023-03-12T00:31:12.984Z, 37.42
2023-03-12T00:32:12.897Z, 37.39
2023-03-12T00:33:12.911Z, 37.44
2023-03-12T00:34:12.900Z, 37.37
2023-03-12T00:35:12.895Z, 37.39
2023-03-12T00:36:12.967Z, 37.37
2023-03-12T00:37:12.951Z, 37.37
2023-03-12T00:38:13.009Z, 37.36
2023-03-12T00:39:12.983Z, 37.31
2023-03-12T00:40:12.962Z, 37.30
2023-03-12T00:41:12.972Z, 37.29
2023-03-12T00:42:12.960Z, 37.30
2023-03-12T00:43:12.968Z, 37.31
2023-03-12T00:44:12.964Z, 37.29
2023-03-12T00:45:12.995Z, 37.23
2023-03-12T00:46:13.103Z, 37.15
2023-03-12T00:47:13.132Z, 37.11
2023-03-12T00:48:13.097Z, 37.11
2023-03-12T00:49:13.065Z, 37.06
2023-03-12T00:50:13.076Z, 37.07
2023-03-12T00:51:13.102Z, 37.02
2023-03-12T00:52:13.144Z, 36.98
2023-03-12T00:53:13.158Z, 37.00
2023-03-12T00:54:13.160Z, 37.01
2023-03-12T00:55:13.164Z, 37.01
2023-03-12T00:56:13.165Z, 36.98
2023-03-12T00:57:13.140Z, 37.00
2023-03-12T00:58:13.202Z, 37.02
2023-03-12T00:59:13.170Z, 36.99
2023-03-12T01:00:13.222Z, 36.94
2023-03-12T01:01:13.218Z, 36.92
2023-03-12T01:02:13.232Z, 36.91
2023-03-12T01:03:13.222Z, 36.80
2023-03-12T01:04:13.233Z, 36.79
2023-03-12T01:05:13.264Z, 36.84
2023-03-12T01:06:13.256Z, 36.77
2023-03-12T01:07:13.267Z, 36.75
2023-03-12T01:08:13.284Z, 36.75
2023-03-12T01:09:13.248Z, 36.73
2023-03-12T01:10:13.260Z, 36.75
2023-03-12T01:11:13.291Z, 36.75
2023-03-12T01:12:13.268Z, 36.73
2023-03-12T01:13:13.324Z, 36.72
2023-03-12T01:14:13.282Z, 36.65
2023-03-12T01:15:13.283Z, 36.66
2023-03-12T01:16:13.354Z, 36.64
2023-03-12T01:17:13.352Z, 36.66
2023-03-12T01:18:13.347Z, 36.64
2023-03-12T01:19:13.343Z, 36.63
2023-03-12T01:20:13.392Z, 36.52
2023-03-12T01:21:13.361Z, 36.55
2023-03-12T01:22:13.410Z, 36.59
2023-03-12T01:23:13.404Z, 36.62
2023-03-12T01:24:13.413Z, 36.58
2023-03-12T01:25:13.406Z, 36.57
2023-03-12T01:26:13.405Z, 36.48
2023-03-12T01:27:13.413Z, 36.45
2023-03-12T01:28:13.428Z, 36.45
2023-03-12T01:29:13.464Z, 36.45
2023-03-12T01:30:13.507Z, 36.44
2023-03-12T01:31:13.560Z, 36.34
2023-03-12T01:32:13.546Z, 36.31
2023-03-12T01:33:13.573Z, 36.33
2023-03-12T01:34:13.540Z, 36.36
2023-03-12T01:35:13.604Z, 36.31
2023-03-12T01:36:13.619Z, 36.32
2023-03-12T01:37:13.573Z, 36.32
2023-03-12T01:38:13.570Z, 36.35
2023-03-12T01:39:13.571Z, 36.32
2023-03-12T01:40:13.607Z, 36.30
2023-03-12T01:41:13.587Z, 36.25
2023-03-12T01:42:13.578Z, 36.25
2023-03-12T01:43:13.636Z, 36.30
2023-03-12T01:44:13.618Z, 36.26
2023-03-12T01:45:13.649Z, 36.29
2023-03-12T01:46:13.727Z, 36.24
2023-03-12T01:47:13.645Z, 36.23
2023-03-12T01:48:13.656Z, 36.22
2023-03-12T01:49:13.688Z, 36.22
2023-03-12T01:50:13.677Z, 36.16
2023-03-12T01:51:13.651Z, 36.15
2023-03-12T01:52:13.717Z, 36.10
2023-03-12T01:53:13.693Z, 36.07
2023-03-12T01:54:13.686Z, 36.06
2023-03-12T01:55:13.681Z, 36.05
2023-03-12T01:56:13.687Z, 36.00
2023-03-12T01:57:13.695Z, 36.03
2023-03-12T01:58:13.712Z, 36.00
2023-03-12T01:59:13.738Z, 35.99
2023-03-12T02:00:13.735Z, 35.95
2023-03-12T02:01:13.800Z, 35.94
2023-03-12T02:02:13.756Z, 35.90
2023-03-12T02:03:13.809Z, 35.92
2023-03-12T02:04:13.859Z, 35.93
2023-03-12T02:05:13.779Z, 35.87
2023-03-12T02:06:13.823Z, 35.85
2023-03-12T02:07:13.833Z, 35.85
2023-03-12T02:08:13.855Z, 35.83
2023-03-12T02:09:13.931Z, 35.84
2023-03-12T02:10:13.900Z, 35.78
2023-03-12T02:11:13.931Z, 35.83
2023-03-12T02:12:13.891Z, 35.83
2023-03-12T02:13:13.930Z, 35.80
2023-03-12T02:14:13.897Z, 35.74
2023-03-12T02:15:13.937Z, 35.73
2023-03-12T02:16:14.008Z, 35.75
2023-03-12T02:17:13.925Z, 35.73
2023-03-12T02:18:13.928Z, 35.70
2023-03-12T02:19:13.950Z, 35.67
2023-03-12T02:20:13.991Z, 35.63
2023-03-12T02:21:14.005Z, 35.62
2023-03-12T02:22:13.987Z, 35.59
2023-03-12T02:23:13.986Z, 35.60
2023-03-12T02:24:13.979Z, 35.62
2023-03-12T02:25:14.013Z, 35.57
2023-03-12T02:26:13.998Z, 35.59
2023-03-12T02:27:14.037Z, 35.58
2023-03-12T02:28:14.090Z, 35.58
2023-03-12T02:29:14.048Z, 35.52
2023-03-12T02:30:14.083Z, 35.50
2023-03-12T02:31:14.061Z, 35.52
2023-03-12T02:32:14.180Z, 35.51
2023-03-12T02:33:14.081Z, 35.50
2023-03-12T02:34:14.065Z, 35.45
2023-03-12T02:35:14.098Z, 35.46
2023-03-12T02:36:14.250Z, 35.46
2023-03-12T02:37:14.160Z, 35.42
2023-03-12T02:38:14.163Z, 35.38
2023-03-12T02:39:14.183Z, 35.38
2023-03-12T02:40:14.183Z, 35.40
2023-03-12T02:41:14.180Z, 35.38
2023-03-12T02:42:14.187Z, 35.42
2023-03-12T02:43:14.192Z, 35.35
2023-03-12T02:44:14.170Z, 35.34
2023-03-12T02:45:14.166Z, 35.39
2023-03-12T02:46:14.251Z, 35.35
2023-03-12T02:47:14.222Z, 35.33
2023-03-12T02:48:14.226Z, 35.30
2023-03-12T02:49:14.237Z, 35.30
2023-03-12T02:50:14.221Z, 35.29
2023-03-12T02:51:14.282Z, 35.28
2023-03-12T02:52:14.282Z, 35.27
2023-03-12T02:53:14.326Z, 35.24
2023-03-12T02:54:14.327Z, 35.22
2023-03-12T02:55:14.332Z, 35.20
2023-03-12T02:56:14.348Z, 35.15
2023-03-12T02:57:14.318Z, 35.16
2023-03-12T02:58:14.395Z, 35.15
2023-03-12T02:59:14.374Z, 35.12
2023-03-12T03:00:14.354Z, 35.10
2023-03-12T03:01:14.437Z, 35.07
2023-03-12T03:02:14.383Z, 34.99
2023-03-12T03:03:14.426Z, 34.99
2023-03-12T03:04:14.434Z, 34.96
2023-03-12T03:05:14.390Z, 34.95
2023-03-12T03:06:14.385Z, 34.96
2023-03-12T03:07:14.387Z, 34.98
2023-03-12T03:08:14.422Z, 35.01
2023-03-12T03:09:14.398Z, 34.96
2023-03-12T03:10:14.436Z, 34.93
2023-03-12T03:11:14.511Z, 34.92
2023-03-12T03:12:14.490Z, 34.92
2023-03-12T03:13:14.502Z, 34.91
2023-03-12T03:14:14.498Z, 34.94
2023-03-12T03:15:14.521Z, 34.90
2023-03-12T03:16:14.620Z, 34.85
2023-03-12T03:17:14.491Z, 34.82
2023-03-12T03:18:14.509Z, 34.82
2023-03-12T03:19:14.508Z, 34.80
2023-03-12T03:20:14.583Z, 34.81
2023-03-12T03:21:14.562Z, 34.76
2023-03-12T03:22:14.564Z, 34.78
2023-03-12T03:23:14.581Z, 34.80
2023-03-12T03:24:14.579Z, 34.77
2023-03-12T03:25:14.594Z, 34.76
2023-03-12T03:26:14.575Z, 34.79
2023-03-12T03:27:14.593Z, 34.72
2023-03-12T03:28:14.605Z, 34.71
2023-03-12T03:29:14.588Z, 34.73
2023-03-12T03:30:14.699Z, 34.73
2023-03-12T03:31:14.725Z, 34.72
2023-03-12T03:32:14.737Z, 34.69
2023-03-12T03:33:14.703Z, 34.71
2023-03-12T03:34:14.707Z, 34.67
2023-03-12T03:35:14.735Z, 34.63
2023-03-12T03:36:14.912Z, 34.61
2023-03-12T03:37:14.801Z, 34.60
2023-03-12T03:38:14.802Z, 34.63
2023-03-12T03:39:14.809Z, 34.62
2023-03-12T03:40:14.791Z, 34.62
2023-03-12T03:41:14.793Z, 34.61
2023-03-12T03:42:14.788Z, 34.60
2023-03-12T03:43:14.810Z, 34.56
2023-03-12T03:44:14.788Z, 34.54
2023-03-12T03:45:14.830Z, 34.51
2023-03-12T03:46:14.893Z, 34.55
2023-03-12T03:47:14.786Z, 34.50
2023-03-12T03:48:14.852Z, 34.53
2023-03-12T03:49:14.800Z, 34.47
2023-03-12T03:50:14.816Z, 34.45
2023-03-12T03:51:14.805Z, 34.42
2023-03-12T03:52:14.813Z, 34.40
2023-03-12T03:53:14.819Z, 34.47
2023-03-12T03:54:14.825Z, 34.44
2023-03-12T03:55:14.837Z, 34.43
2023-03-12T03:56:14.842Z, 34.41
2023-03-12T03:57:14.882Z, 34.40
2023-03-12T03:58:14.877Z, 34.36
2023-03-12T03:59:14.868Z, 34.33
2023-03-12T04:00:14.943Z, 34.31
2023-03-12T04:01:14.915Z, 34.28
2023-03-12T04:02:14.923Z, 34.25
2023-03-12T04:03:14.999Z, 34.28
2023-03-12T04:04:14.962Z, 34.28
2023-03-12T04:05:15.070Z, 34.26
2023-03-12T04:06:14.956Z, 34.21
2023-03-12T04:07:14.945Z, 34.23
2023-03-12T04:08:15.019Z, 34.26
2023-03-12T04:09:14.990Z, 34.27
2023-03-12T04:10:15.001Z, 34.26
2023-03-12T04:11:14.998Z, 34.22
2023-03-12T04:12:15.068Z, 34.24
2023-03-12T04:13:15.055Z, 34.21
2023-03-12T04:14:15.047Z, 34.21
2023-03-12T04:15:15.046Z, 34.17
2023-03-12T04:16:15.104Z, 34.15
2023-03-12T04:17:15.126Z, 34.17
2023-03-12T04:18:15.226Z, 34.13
2023-03-12T04:19:15.171Z, 34.13
2023-03-12T04:20:15.148Z, 34.12
2023-03-12T04:21:15.172Z, 34.09
2023-03-12T04:22:15.168Z, 34.09
2023-03-12T04:23:15.162Z, 34.06
2023-03-12T04:24:15.158Z, 34.04
2023-03-12T04:25:15.180Z, 34.07
2023-03-12T04:26:15.188Z, 34.08
2023-03-12T04:27:15.186Z, 34.06
2023-03-12T04:28:15.186Z, 34.01
2023-03-12T04:29:15.178Z, 34.00
2023-03-12T04:30:15.188Z, 33.94
2023-03-12T04:31:15.224Z, 34.12
2023-03-12T04:32:15.277Z, 35.49
2023-03-12T04:33:15.235Z, 35.98
2023-03-12T04:34:15.229Z, 36.03
2023-03-12T04:35:15.234Z, 36.00
2023-03-12T04:36:15.285Z, 35.95
2023-03-12T04:37:15.310Z, 35.85
2023-03-12T04:38:15.325Z, 35.66
2023-03-12T04:39:15.330Z, 35.40
2023-03-12T04:40:15.302Z, 35.11
2023-03-12T04:41:15.306Z, 34.89
2023-03-12T04:42:15.302Z, 34.77
2023-03-12T04:43:15.353Z, 34.64
2023-03-12T04:44:15.378Z, 34.45
2023-03-12T04:45:15.372Z, 34.30
2023-03-12T04:46:15.379Z, 34.10
2023-03-12T04:47:15.408Z, 33.91
2023-03-12T04:48:15.367Z, 33.69
2023-03-12T04:49:15.370Z, 36.68
2023-03-12T04:50:15.371Z, 43.39
2023-03-12T04:51:15.375Z, 46.06
2023-03-12T04:52:15.497Z, 45.02
2023-03-12T04:53:15.512Z, 43.79
2023-03-12T04:54:15.422Z, 42.54
2023-03-12T04:55:15.426Z, 41.42
2023-03-12T04:56:15.441Z, 40.29
2023-03-12T04:57:15.453Z, 39.44
2023-03-12T04:58:15.440Z, 38.69
2023-03-12T04:59:15.502Z, 37.96
2023-03-12T05:00:15.548Z, 37.33
2023-03-12T05:01:15.510Z, 36.78
2023-03-12T05:02:15.526Z, 36.10
2023-03-12T05:03:15.578Z, 35.50
2023-03-12T05:04:15.533Z, 35.18
2023-03-12T05:05:15.512Z, 40.17
2023-03-12T05:06:15.562Z, 46.64
2023-03-12T05:07:15.638Z, 49.75
2023-03-12T05:08:15.572Z, 49.62
2023-03-12T05:09:15.574Z, 48.78
2023-03-12T05:10:15.563Z, 48.29
2023-03-12T05:11:15.563Z, 47.80
2023-03-12T05:12:15.561Z, 47.55
2023-03-12T05:13:15.585Z, 50.14
2023-03-12T05:14:15.584Z, 51.83
2023-03-12T05:15:15.663Z, 54.32
2023-03-12T05:16:15.689Z, 57.43
2023-03-12T05:17:15.676Z, 60.78
2023-03-12T05:18:15.657Z, 65.12
2023-03-12T05:19:15.640Z, 52.25
2023-03-12T05:20:15.637Z, 53.02
2023-03-12T05:21:15.640Z, 54.32
2023-03-12T05:22:15.722Z, 56.01
2023-03-12T05:23:15.684Z, 58.96
2023-03-12T05:24:15.694Z, 64.88
2023-03-12T05:25:15.677Z, 60.84
2023-03-12T05:26:15.680Z, 52.69
2023-03-12T05:27:15.694Z, 54.04
2023-03-12T05:28:15.711Z, 55.07
2023-03-12T05:29:15.728Z, 57.47
2023-03-12T05:30:15.730Z, 59.96
2023-03-12T05:31:15.808Z, 61.75
2023-03-12T05:32:15.795Z, 65.75
2023-03-12T05:33:15.755Z, 67.24
2023-03-12T05:34:15.742Z, 67.47
2023-03-12T05:35:15.755Z, 66.89
2023-03-12T05:36:15.798Z, 66.35
2023-03-12T05:37:15.854Z, 65.90
2023-03-12T05:38:15.880Z, 65.40
2023-03-12T05:39:15.853Z, 64.82
2023-03-12T05:40:15.886Z, 64.08
2023-03-12T05:41:15.859Z, 63.26
2023-03-12T05:42:15.850Z, 62.59
2023-03-12T05:43:15.887Z, 62.05
2023-03-12T05:44:15.865Z, 61.59
2023-03-12T05:45:15.873Z, 61.11
2023-03-12T05:46:16.041Z, 60.62
2023-03-12T05:47:15.865Z, 60.19
2023-03-12T05:48:15.876Z, 59.70
2023-03-12T05:49:15.872Z, 59.22
2023-03-12T05:50:15.878Z, 58.83
2023-03-12T05:51:15.877Z, 58.43
2023-03-12T05:52:16.040Z, 57.99
2023-03-12T05:53:16.002Z, 57.58
2023-03-12T05:54:15.979Z, 57.14
2023-03-12T05:55:15.977Z, 56.76
2023-03-12T05:56:15.977Z, 56.42
2023-03-12T05:57:15.978Z, 56.06
2023-03-12T05:58:15.994Z, 55.70
2023-03-12T05:59:16.014Z, 55.32
2023-03-12T06:00:16.000Z, 54.95
2023-03-12T06:01:15.995Z, 54.45
2023-03-12T06:02:16.032Z, 53.52
2023-03-12T06:03:16.034Z, 52.42
2023-03-12T06:04:15.972Z, 51.19
2023-03-12T06:05:15.977Z, 50.05
2023-03-12T06:06:15.993Z, 48.92
2023-03-12T06:07:16.033Z, 47.73
2023-03-12T06:08:16.255Z, 46.58
2023-03-12T06:09:16.055Z, 45.47
2023-03-12T06:10:16.028Z, 44.42
2023-03-12T06:11:16.046Z, 43.41
2023-03-12T06:12:16.066Z, 42.41
2023-03-12T06:13:16.081Z, 41.53
2023-03-12T06:14:16.121Z, 40.72
2023-03-12T06:15:16.117Z, 42.81
2023-03-12T06:16:16.278Z, 47.29
2023-03-12T06:17:16.166Z, 50.71
2023-03-12T06:18:16.201Z, 51.24
2023-03-12T06:19:16.169Z, 50.78
2023-03-12T06:20:16.155Z, 50.32
2023-03-12T06:21:16.155Z, 49.97
2023-03-12T06:22:16.156Z, 49.62
2023-03-12T06:23:16.240Z, 49.30
2023-03-12T06:24:16.204Z, 48.98
2023-03-12T06:25:16.200Z, 48.69
2023-03-12T06:26:16.273Z, 48.38
2023-03-12T06:27:16.265Z, 48.11
2023-03-12T06:28:16.257Z, 47.85
2023-03-12T06:29:16.249Z, 47.62
2023-03-12T06:30:16.245Z, 47.43
2023-03-12T06:31:16.336Z, 47.23
2023-03-12T06:32:16.420Z, 47.02
2023-03-12T06:33:16.313Z, 46.84
2023-03-12T06:34:16.291Z, 46.65
2023-03-12T06:35:16.295Z, 46.47
2023-03-12T06:36:16.374Z, 46.30
2023-03-12T06:37:16.381Z, 46.12
2023-03-12T06:38:16.354Z, 45.96
2023-03-12T06:39:16.354Z, 45.82
2023-03-12T06:40:16.388Z, 45.64
2023-03-12T06:41:16.370Z, 45.47
2023-03-12T06:42:16.412Z, 45.36
2023-03-12T06:43:16.392Z, 45.25
2023-03-12T06:44:16.377Z, 45.12
2023-03-12T06:45:16.385Z, 44.99
2023-03-12T06:46:16.411Z, 44.85
2023-03-12T06:47:17.701Z, 44.74
2023-03-12T06:48:16.483Z, 44.61
2023-03-12T06:49:16.497Z, 44.50
2023-03-12T06:50:16.543Z, 44.35
2023-03-12T06:51:16.543Z, 44.21
2023-03-12T06:52:16.534Z, 44.12
2023-03-12T06:53:16.514Z, 43.99
2023-03-12T06:54:16.582Z, 43.84
2023-03-12T06:55:16.570Z, 43.72
2023-03-12T06:56:16.556Z, 43.62
2023-03-12T06:57:16.535Z, 43.48
2023-03-12T06:58:16.540Z, 43.36
2023-03-12T06:59:16.577Z, 43.29
2023-03-12T07:00:16.573Z, 43.18
2023-03-12T07:01:16.601Z, 43.09
2023-03-12T07:02:16.643Z, 42.95
2023-03-12T07:03:16.625Z, 42.94
2023-03-12T07:04:16.620Z, 42.76
2023-03-12T07:05:16.624Z, 42.63
2023-03-12T07:06:16.653Z, 42.51
2023-03-12T07:07:16.620Z, 42.50
2023-03-12T07:08:16.683Z, 42.35
2023-03-12T07:09:16.692Z, 42.34
2023-03-12T07:10:16.688Z, 42.23
2023-03-12T07:11:16.703Z, 42.15
2023-03-12T07:12:16.707Z, 42.06
2023-03-12T07:13:16.688Z, 42.00
2023-03-12T07:14:16.686Z, 41.89
2023-03-12T07:15:16.677Z, 41.81
2023-03-12T07:16:16.804Z, 41.75
2023-03-12T07:17:16.689Z, 41.65
2023-03-12T07:18:16.697Z, 41.56
2023-03-12T07:19:16.703Z, 41.50
2023-03-12T07:20:16.718Z, 41.48
2023-03-12T07:21:16.798Z, 41.39
2023-03-12T07:22:16.762Z, 41.28
2023-03-12T07:23:16.833Z, 41.16
2023-03-12T07:24:16.812Z, 41.13
2023-03-12T07:25:18.968Z, 41.08
2023-03-12T07:26:16.836Z, 41.08
2023-03-12T07:27:16.873Z, 41.02
2023-03-12T07:28:16.837Z, 40.96
2023-03-12T07:29:16.883Z, 40.91
2023-03-12T07:30:16.857Z, 40.83
2023-03-12T07:31:16.965Z, 40.79
2023-03-12T07:32:16.949Z, 40.74
2023-03-12T07:33:17.071Z, 40.72
2023-03-12T07:34:17.006Z, 40.63
2023-03-12T07:35:16.927Z, 40.60
2023-03-12T07:36:17.201Z, 40.52
2023-03-12T07:37:16.976Z, 40.51
2023-03-12T07:38:17.028Z, 40.45
2023-03-12T07:39:16.969Z, 40.40
2023-03-12T07:40:16.979Z, 40.31
2023-03-12T07:41:17.058Z, 40.28
2023-03-12T07:42:17.040Z, 40.24
2023-03-12T07:43:18.615Z, 40.22
2023-03-12T07:44:16.989Z, 40.17
2023-03-12T07:45:17.111Z, 40.18
2023-03-12T07:46:17.023Z, 40.13
2023-03-12T07:47:24.043Z, 40.07
2023-03-12T07:48:17.133Z, 39.99
2023-03-12T07:49:17.036Z, 39.96
2023-03-12T07:50:17.170Z, 39.91
2023-03-12T07:51:17.035Z, 39.88
2023-03-12T07:52:17.047Z, 39.82
2023-03-12T07:53:17.070Z, 39.78
2023-03-12T07:54:17.062Z, 39.70
2023-03-12T07:55:17.221Z, 39.72
2023-03-12T07:56:17.230Z, 39.65
2023-03-12T07:57:17.276Z, 39.66
2023-03-12T07:58:17.392Z, 39.57
2023-03-12T07:59:17.346Z, 39.56
2023-03-12T08:00:17.383Z, 39.52
2023-03-12T08:01:17.233Z, 39.48
2023-03-12T08:02:17.329Z, 39.41
2023-03-12T08:03:17.380Z, 39.35
2023-03-12T08:04:17.298Z, 39.32
2023-03-12T08:05:17.191Z, 39.25
2023-03-12T08:06:17.222Z, 39.20
2023-03-12T08:07:17.271Z, 39.15
2023-03-12T08:08:17.313Z, 39.12
2023-03-12T08:09:17.269Z, 39.06
2023-03-12T08:10:17.360Z, 39.06
2023-03-12T08:11:17.277Z, 38.99
2023-03-12T08:12:17.344Z, 38.99
2023-03-12T08:13:17.316Z, 38.87
2023-03-12T08:14:17.363Z, 38.87
2023-03-12T08:15:17.357Z, 38.89
2023-03-12T08:16:17.385Z, 38.86
2023-03-12T08:17:17.335Z, 38.82
2023-03-12T08:18:17.381Z, 38.78
2023-03-12T08:19:17.348Z, 38.75
2023-03-12T08:20:17.391Z, 38.74
2023-03-12T08:21:17.377Z, 38.69
2023-03-12T08:22:17.391Z, 38.63
2023-03-12T08:23:17.430Z, 38.62
2023-03-12T08:24:17.385Z, 38.61
2023-03-12T08:25:17.396Z, 38.56
2023-03-12T08:26:17.387Z, 38.53
2023-03-12T08:27:17.379Z, 38.46
2023-03-12T08:28:17.415Z, 38.42
2023-03-12T08:29:17.397Z, 38.37
2023-03-12T08:30:17.417Z, 38.37
2023-03-12T08:31:17.539Z, 38.30
2023-03-12T08:32:17.556Z, 38.34
2023-03-12T08:33:17.477Z, 38.24
2023-03-12T08:34:17.481Z, 38.19
2023-03-12T08:35:17.491Z, 38.16
2023-03-12T08:36:17.593Z, 38.16
2023-03-12T08:37:17.577Z, 38.09
2023-03-12T08:38:17.573Z, 38.08
2023-03-12T08:39:17.588Z, 38.04
2023-03-12T08:40:17.624Z, 38.00
2023-03-12T08:41:17.625Z, 37.95
2023-03-12T08:42:17.615Z, 37.89
2023-03-12T08:43:17.630Z, 37.85
2023-03-12T08:44:17.609Z, 37.85
2023-03-12T08:45:17.607Z, 37.83
2023-03-12T08:46:17.667Z, 37.81
2023-03-12T08:47:17.665Z, 37.83
2023-03-12T08:48:17.668Z, 37.83
2023-03-12T08:49:17.682Z, 37.79
2023-03-12T08:50:17.692Z, 37.78
2023-03-12T08:51:17.701Z, 37.74
2023-03-12T08:52:17.696Z, 37.72
2023-03-12T08:53:17.704Z, 37.68
2023-03-12T08:54:17.698Z, 37.64
2023-03-12T08:55:17.712Z, 37.59
2023-03-12T08:56:17.767Z, 37.59
2023-03-12T08:57:17.763Z, 37.62
2023-03-12T08:58:17.757Z, 37.59
2023-03-12T08:59:17.751Z, 37.57
2023-03-12T09:00:17.745Z, 37.48
2023-03-12T09:01:17.820Z, 37.46
2023-03-12T09:02:17.785Z, 37.42
2023-03-12T09:03:17.942Z, 37.39
2023-03-12T09:04:17.867Z, 37.36
2023-03-12T09:05:17.834Z, 37.32
2023-03-12T09:06:17.831Z, 37.30
2023-03-12T09:07:17.823Z, 37.28
2023-03-12T09:08:17.887Z, 37.27
2023-03-12T09:09:17.908Z, 37.20
2023-03-12T09:10:17.887Z, 37.16
2023-03-12T09:11:17.959Z, 37.13
2023-03-12T09:12:17.932Z, 37.15
2023-03-12T09:13:17.947Z, 37.14
2023-03-12T09:15:01.962Z, 37.11
2023-03-12T09:15:17.918Z, 37.12
2023-03-12T09:16:18.040Z, 37.13
2023-03-12T09:17:17.982Z, 37.04
2023-03-12T09:18:17.953Z, 37.00
2023-03-12T09:19:17.973Z, 37.02
2023-03-12T09:20:17.953Z, 36.96
2023-03-12T09:21:17.980Z, 36.98
2023-03-12T09:22:17.967Z, 36.99
2023-03-12T09:23:17.962Z, 36.94
2023-03-12T09:24:18.058Z, 36.91
2023-03-12T09:25:18.070Z, 36.84
2023-03-12T09:26:18.072Z, 36.85
2023-03-12T09:27:18.041Z, 36.84
2023-03-12T09:28:18.079Z, 36.77
2023-03-12T09:29:18.097Z, 36.77
2023-03-12T09:30:18.111Z, 36.74
2023-03-12T09:31:18.175Z, 36.75
2023-03-12T09:32:18.119Z, 36.69
2023-03-12T09:33:18.112Z, 36.69
2023-03-12T09:34:18.105Z, 36.68
2023-03-12T09:35:18.093Z, 36.61
2023-03-12T09:36:18.145Z, 36.60
2023-03-12T09:37:18.124Z, 36.54
2023-03-12T09:38:18.121Z, 36.54
2023-03-12T09:39:18.214Z, 36.54
2023-03-12T09:40:18.179Z, 36.55
2023-03-12T09:41:18.176Z, 36.53
2023-03-12T09:42:18.195Z, 36.44
2023-03-12T09:43:18.233Z, 36.46
2023-03-12T09:44:18.296Z, 36.47
2023-03-12T09:45:18.251Z, 36.46
2023-03-12T09:46:18.300Z, 36.41
2023-03-12T09:47:18.242Z, 36.33
2023-03-12T09:48:18.265Z, 36.33
2023-03-12T09:49:18.250Z, 36.35
2023-03-12T09:50:18.253Z, 36.41
2023-03-12T09:51:18.244Z, 36.32
2023-03-12T09:52:18.255Z, 36.32
2023-03-12T09:53:18.264Z, 36.32
2023-03-12T09:54:18.276Z, 36.29
2023-03-12T09:55:18.291Z, 36.24
2023-03-12T09:56:18.286Z, 36.25
2023-03-12T09:57:18.379Z, 36.29
2023-03-12T09:58:18.348Z, 36.22
2023-03-12T09:59:18.401Z, 36.25
2023-03-12T10:00:18.403Z, 36.24
2023-03-12T10:01:18.376Z, 36.18
2023-03-12T10:02:18.409Z, 36.16
2023-03-12T10:03:18.475Z, 36.13
2023-03-12T10:04:18.456Z, 36.08
2023-03-12T10:05:18.524Z, 36.01
2023-03-12T10:06:18.500Z, 36.00
2023-03-12T10:07:18.451Z, 36.06
2023-03-12T10:08:24.857Z, 36.01
2023-03-12T10:09:18.446Z, 35.96
2023-03-12T10:10:18.449Z, 35.99
2023-03-12T10:11:18.487Z, 35.94
2023-03-12T10:12:18.477Z, 35.98
2023-03-12T10:13:18.465Z, 35.93
2023-03-12T10:14:23.633Z, 35.93
2023-03-12T10:15:18.478Z, 35.90
2023-03-12T10:16:18.541Z, 35.84
2023-03-12T10:17:18.550Z, 35.84
2023-03-12T10:18:18.657Z, 35.79
2023-03-12T10:19:18.568Z, 35.76
2023-03-12T10:20:18.580Z, 35.77
2023-03-12T10:21:18.560Z, 35.73
2023-03-12T10:22:18.563Z, 35.78
2023-03-12T10:23:18.646Z, 35.74
2023-03-12T10:24:18.607Z, 35.71
2023-03-12T10:25:18.604Z, 35.66
2023-03-12T10:26:18.609Z, 35.68
2023-03-12T10:27:18.613Z, 35.60
2023-03-12T10:28:18.652Z, 35.56
2023-03-12T10:29:18.635Z, 35.53
2023-03-12T10:30:18.738Z, 35.54
2023-03-12T10:31:18.771Z, 35.52
2023-03-12T10:32:18.719Z, 35.53
2023-03-12T10:33:18.696Z, 35.46
2023-03-12T10:34:18.714Z, 35.47
2023-03-12T10:35:21.546Z, 35.49
2023-03-12T10:36:18.736Z, 35.47
2023-03-12T10:37:18.797Z, 35.43
2023-03-12T10:38:18.822Z, 35.45
2023-03-12T10:39:18.779Z, 35.44
2023-03-12T10:40:18.851Z, 35.42
2023-03-12T10:41:18.824Z, 35.32
2023-03-12T10:42:18.916Z, 35.30
2023-03-12T10:43:18.835Z, 35.31
2023-03-12T10:44:18.835Z, 35.31
2023-03-12T10:45:18.923Z, 35.30
2023-03-12T10:46:18.939Z, 35.26
2023-03-12T10:47:18.915Z, 35.20
2023-03-12T10:48:18.896Z, 35.22
2023-03-12T10:49:19.009Z, 35.21
2023-03-12T10:50:19.057Z, 35.25
2023-03-12T10:51:18.990Z, 35.20
2023-03-12T10:52:19.011Z, 35.20
2023-03-12T10:53:18.952Z, 35.12
2023-03-12T10:54:18.956Z, 35.10
2023-03-12T10:55:18.999Z, 35.07
2023-03-12T10:56:18.960Z, 35.08
2023-03-12T10:57:19.026Z, 35.08
2023-03-12T10:58:19.043Z, 35.08
2023-03-12T10:59:19.068Z, 35.06
2023-03-12T11:00:19.115Z, 35.01
2023-03-12T11:01:19.280Z, 35.40
2023-03-12T11:02:19.106Z, 36.46
2023-03-12T11:03:19.092Z, 39.51
2023-03-12T11:04:19.074Z, 46.38
2023-03-12T11:05:19.094Z, 49.76
2023-03-12T11:06:19.163Z, 48.00
2023-03-12T11:07:19.156Z, 45.70
2023-03-12T11:08:19.172Z, 43.40
2023-03-12T11:09:19.151Z, 41.54
2023-03-12T11:10:19.150Z, 39.60
2023-03-12T11:11:19.149Z, 37.61
2023-03-12T11:12:19.136Z, 36.29
2023-03-12T11:13:19.134Z, 35.46
2023-03-12T11:14:19.251Z, 34.97
2023-03-12T11:15:19.206Z, 34.61
2023-03-12T11:16:19.240Z, 34.29
2023-03-12T11:17:19.256Z, 33.86
2023-03-12T11:18:19.262Z, 36.86
2023-03-12T11:19:19.204Z, 43.15
2023-03-12T11:20:19.196Z, 48.24
2023-03-12T11:21:19.224Z, 50.77
2023-03-12T11:22:19.245Z, 49.78
2023-03-12T11:23:19.258Z, 47.79
2023-03-12T11:24:19.255Z, 45.68
2023-03-12T11:25:19.253Z, 43.84
2023-03-12T11:26:19.318Z, 42.19
2023-03-12T11:27:19.244Z, 40.66
2023-03-12T11:28:19.351Z, 39.15
2023-03-12T11:29:19.385Z, 37.34
2023-03-12T11:30:19.325Z, 35.50
2023-03-12T11:31:19.628Z, 34.81
2023-03-12T11:32:19.428Z, 34.58
2023-03-12T11:33:19.341Z, 34.48
2023-03-12T11:34:19.343Z, 34.42
2023-03-12T11:35:19.402Z, 34.68
2023-03-12T11:36:19.372Z, 34.88
2023-03-12T11:37:19.383Z, 35.02
2023-03-12T11:38:19.398Z, 35.08
2023-03-12T11:39:19.377Z, 35.10
2023-03-12T11:40:19.365Z, 35.07
2023-03-12T11:41:19.380Z, 35.05
2023-03-12T11:42:19.399Z, 35.01
2023-03-12T11:43:29.262Z, 34.97
2023-03-12T11:44:19.401Z, 34.89
2023-03-12T11:45:19.397Z, 34.84
2023-03-12T11:46:19.433Z, 34.76
2023-03-12T11:47:19.471Z, 34.67
2023-03-12T11:48:19.498Z, 34.61
2023-03-12T11:49:19.424Z, 34.52
2023-03-12T11:50:19.459Z, 34.44
2023-03-12T11:51:19.460Z, 34.36
2023-03-12T11:52:19.454Z, 34.27
2023-03-12T11:53:19.457Z, 34.18
2023-03-12T11:54:19.456Z, 34.10
2023-03-12T11:55:19.487Z, 34.01
2023-03-12T11:56:19.538Z, 33.92
2023-03-12T11:57:19.504Z, 33.83
2023-03-12T11:58:19.506Z, 33.74
2023-03-12T11:59:19.513Z, 33.65
2023-03-12T12:00:19.599Z, 33.56
2023-03-12T12:01:19.602Z, 33.48
2023-03-12T12:02:19.627Z, 33.39
2023-03-12T12:03:19.635Z, 33.30
2023-03-12T12:04:19.596Z, 33.22
2023-03-12T12:05:19.572Z, 33.15
2023-03-12T12:06:19.581Z, 33.05
2023-03-12T12:07:19.588Z, 32.96
2023-03-12T12:08:19.610Z, 32.89
2023-03-12T12:09:19.592Z, 32.83
2023-03-12T12:10:19.671Z, 32.75
2023-03-12T12:11:19.605Z, 32.72
2023-03-12T12:12:19.629Z, 32.64
2023-03-12T12:13:19.649Z, 32.57
2023-03-12T12:14:19.696Z, 32.49
2023-03-12T12:15:19.666Z, 32.43
2023-03-12T12:16:19.705Z, 32.40
2023-03-12T12:17:19.665Z, 32.34
2023-03-12T12:18:19.668Z, 32.28
2023-03-12T12:19:19.752Z, 32.22
2023-03-12T12:20:19.754Z, 32.14
2023-03-12T12:21:19.762Z, 32.07
2023-03-12T12:22:19.740Z, 32.02
2023-03-12T12:23:19.759Z, 31.97
2023-03-12T12:24:19.775Z, 31.93
2023-03-12T12:25:19.758Z, 31.88
2023-03-12T12:26:19.771Z, 31.85
2023-03-12T12:27:19.769Z, 31.79
2023-03-12T12:28:19.786Z, 31.77